createdAt,value
2022-10-13T00:03:03.375Z,2.60
2022-10-13T00:06:45.069Z,2.67
2022-10-13T00:10:28.054Z,2.33
2022-10-13T00:14:09.739Z,2.38
2022-10-13T00:17:51.640Z,2.17
2022-10-13T00:21:33.503Z,2.50
2022-10-13T00:25:15.257Z,2.70
2022-10-13T00:28:57.056Z,2.55
2022-10-13T00:32:39.113Z,3.05
2022-10-13T00:36:21.565Z,4.20
2022-10-13T00:40:04.264Z,3.90
2022-10-13T00:44:27.634Z,3.63
2022-10-13T00:48:09.311Z,3.42
2022-10-13T00:51:51.210Z,3.67
2022-10-13T00:55:34.239Z,2.90
2022-10-13T00:59:23.204Z,2.45
2022-10-13T01:03:05.119Z,2.58
2022-10-13T01:06:46.838Z,2.50
2022-10-13T01:11:08.911Z,2.78
2022-10-13T01:15:19.890Z,2.70
2022-10-13T01:19:12.805Z,2.22
2022-10-13T01:23:40.250Z,2.20
2022-10-13T01:27:32.283Z,1.95
2022-10-13T01:31:52.919Z,2.00
2022-10-13T01:36:09.855Z,1.83
2022-10-13T01:39:58.074Z,1.95
2022-10-13T01:43:43.204Z,1.83
2022-10-13T01:47:24.896Z,1.98
2022-10-13T01:51:07.581Z,1.60
2022-10-13T01:54:52.627Z,1.83
2022-10-13T01:58:34.594Z,1.70
2022-10-13T02:02:48.760Z,1.65
2022-10-13T02:06:53.212Z,2.00
2022-10-13T02:10:51.987Z,1.60
2022-10-13T02:14:34.711Z,1.55
2022-10-13T02:18:18.880Z,1.80
2022-10-13T02:22:00.665Z,1.50
2022-10-13T02:25:42.452Z,1.73
2022-10-13T02:29:24.206Z,1.95
2022-10-13T02:33:06.111Z,1.90
2022-10-13T02:36:48.111Z,2.50
2022-10-13T02:40:29.975Z,2.08
2022-10-13T02:44:11.756Z,1.88
2022-10-13T02:47:53.455Z,1.77
2022-10-13T02:51:39.892Z,2.10
2022-10-13T02:55:22.190Z,1.60
2022-10-13T02:59:04.005Z,1.95
2022-10-13T03:02:46.017Z,1.55
2022-10-13T03:06:27.743Z,2.20
2022-10-13T03:10:09.724Z,2.10
2022-10-13T03:13:51.449Z,2.17
2022-10-13T03:17:33.114Z,1.95
2022-10-13T03:21:15.195Z,2.50
2022-10-13T03:24:56.999Z,2.55
2022-10-13T03:28:38.702Z,2.58
2022-10-13T03:32:21.045Z,3.05
2022-10-13T03:36:04.697Z,2.17
2022-10-13T03:39:46.437Z,1.90
2022-10-13T03:43:28.298Z,2.75
2022-10-13T03:47:09.969Z,5.10
2022-10-13T03:50:52.030Z,5.43
2022-10-13T03:54:33.719Z,3.92
2022-10-13T03:58:15.447Z,3.55
2022-10-13T04:01:57.332Z,2.60
2022-10-13T04:05:39.056Z,2.90
2022-10-13T04:09:20.844Z,3.03
2022-10-13T04:13:02.779Z,3.33
2022-10-13T04:16:44.458Z,4.03
2022-10-13T04:20:26.259Z,3.05
2022-10-13T04:24:08.175Z,2.30
2022-10-13T04:27:50.372Z,2.60
2022-10-13T04:31:32.463Z,1.92
2022-10-13T04:35:14.206Z,1.67
2022-10-13T04:38:55.981Z,2.17
2022-10-13T04:42:37.690Z,1.73
2022-10-13T04:46:21.174Z,1.45
2022-10-13T04:50:02.941Z,1.50
2022-10-13T04:53:44.677Z,1.90
2022-10-13T04:57:26.407Z,1.92
2022-10-13T05:01:11.325Z,1.50
2022-10-13T05:04:53.019Z,1.73
2022-10-13T05:08:34.710Z,2.30
2022-10-13T05:12:16.818Z,2.38
2022-10-13T05:15:58.685Z,2.70
2022-10-13T05:19:40.357Z,2.55
2022-10-13T05:23:22.290Z,2.65
2022-10-13T05:27:12.234Z,2.15
2022-10-13T05:30:53.998Z,1.88
2022-10-13T05:34:35.710Z,1.92
2022-10-13T05:38:17.374Z,2.47
2022-10-13T05:42:00.313Z,2.05
2022-10-13T05:45:41.995Z,1.77
2022-10-13T05:49:23.707Z,1.80
2022-10-13T05:53:05.758Z,1.75
2022-10-13T05:57:14.093Z,1.90
2022-10-13T06:00:56.063Z,2.20
2022-10-13T06:04:40.011Z,2.50
2022-10-13T06:08:21.687Z,2.03
2022-10-13T06:12:04.754Z,1.90
2022-10-13T06:15:46.493Z,2.30
2022-10-13T06:19:28.210Z,2.95
2022-10-13T06:23:10.035Z,1.63
2022-10-13T06:26:51.696Z,1.40
2022-10-13T06:30:33.534Z,1.20
2022-10-13T06:34:15.315Z,1.48
2022-10-13T06:37:57.506Z,1.40
2022-10-13T06:41:40.459Z,1.23
2022-10-13T06:45:22.273Z,1.63
2022-10-13T06:49:03.955Z,2.53
2022-10-13T06:52:45.886Z,2.80
2022-10-13T06:56:28.935Z,2.70
2022-10-13T07:00:11.571Z,2.72
2022-10-13T07:03:53.252Z,2.78
2022-10-13T07:07:34.979Z,2.65
2022-10-13T07:11:18.559Z,2.13
2022-10-13T07:15:00.246Z,2.28
2022-10-13T07:18:41.971Z,1.90
2022-10-13T07:22:23.755Z,3.38
2022-10-13T07:26:09.778Z,1.70
2022-10-13T07:29:51.450Z,1.90
2022-10-13T07:33:33.158Z,1.42
2022-10-13T07:37:17.776Z,2.10
2022-10-13T07:41:04.507Z,1.60
2022-10-13T07:44:46.262Z,1.90
2022-10-13T07:48:28.481Z,2.33
2022-10-13T07:52:10.578Z,4.18
2022-10-13T07:55:52.298Z,4.20
2022-10-13T07:59:34.136Z,4.47
2022-10-13T08:03:15.846Z,4.40
2022-10-13T08:06:58.365Z,4.05
2022-10-13T08:10:40.077Z,4.43
2022-10-13T08:14:21.778Z,4.47
2022-10-13T08:18:03.510Z,4.30
2022-10-13T08:22:01.813Z,4.00
2022-10-13T08:25:44.022Z,4.00
2022-10-13T08:29:25.851Z,4.00
2022-10-13T08:33:07.771Z,3.30
2022-10-13T08:36:53.067Z,3.60
2022-10-13T08:40:35.163Z,3.35
2022-10-13T08:48:37.371Z,4.30
2022-10-13T08:52:24.574Z,3.75
2022-10-13T08:56:17.658Z,4.45
2022-10-13T08:59:59.347Z,4.87
2022-10-13T09:03:45.550Z,3.50
2022-10-13T09:07:28.832Z,2.85
2022-10-13T09:11:12.323Z,2.20
2022-10-13T09:15:05.114Z,3.10
2022-10-13T09:18:46.819Z,2.90
2022-10-13T09:22:34.075Z,3.08
2022-10-13T09:26:23.712Z,2.20
2022-10-13T09:30:26.369Z,2.38
2022-10-13T09:34:18.816Z,2.50
2022-10-13T09:38:20.457Z,2.40
2022-10-13T09:42:29.502Z,1.98
2022-10-13T09:46:31.486Z,3.25
2022-10-13T09:50:21.311Z,3.63
2022-10-13T09:54:03.512Z,4.00
2022-10-13T09:57:48.837Z,4.88
2022-10-13T10:01:34.326Z,4.72
2022-10-13T10:05:24.587Z,5.25
2022-10-13T10:09:35.146Z,5.60
2022-10-13T10:13:17.038Z,5.60
2022-10-13T10:17:20.854Z,5.40
2022-10-13T10:24:56.005Z,4.32
2022-10-13T10:28:46.839Z,4.60
2022-10-13T10:32:38.658Z,4.10
2022-10-13T10:36:23.680Z,5.13
2022-10-13T10:40:16.745Z,5.45
2022-10-13T10:44:03.072Z,4.63
2022-10-13T10:47:47.389Z,3.15
2022-10-13T10:51:34.024Z,2.90
2022-10-13T10:55:35.891Z,2.70
2022-10-13T10:59:40.204Z,2.80
2022-10-13T11:03:32.243Z,3.13
2022-10-13T11:07:23.266Z,2.60
2022-10-13T11:11:37.541Z,3.22
2022-10-13T11:15:27.498Z,3.42
2022-10-13T11:19:28.627Z,3.50
2022-10-13T11:23:13.404Z,3.40
2022-10-13T11:26:55.412Z,3.05
2022-10-13T11:30:47.413Z,2.88
2022-10-13T11:34:30.966Z,3.63
2022-10-13T11:38:27.125Z,2.90
2022-10-13T11:42:15.062Z,3.15
2022-10-13T11:46:23.338Z,3.10
2022-10-13T11:50:26.187Z,3.45
2022-10-13T11:54:13.650Z,2.72
2022-10-13T11:58:09.318Z,2.20
2022-10-13T12:02:18.877Z,2.42
2022-10-13T12:06:05.888Z,2.28
2022-10-13T12:09:52.818Z,2.00
2022-10-13T12:13:34.791Z,2.42
2022-10-13T12:17:24.192Z,2.55
2022-10-13T12:21:24.818Z,2.40
2022-10-13T12:25:07.142Z,3.45
2022-10-13T12:28:50.496Z,2.90
2022-10-13T12:32:34.253Z,3.65
2022-10-13T12:40:01.031Z,3.80
2022-10-13T12:43:42.701Z,3.65
2022-10-13T12:47:47.281Z,3.85
2022-10-13T12:51:29.289Z,3.75
2022-10-13T12:55:17.786Z,2.97
2022-10-13T12:58:59.459Z,3.22
2022-10-13T13:02:41.377Z,3.25
2022-10-13T13:06:29.500Z,3.15
2022-10-13T13:10:16.733Z,3.40
2022-10-13T13:14:36.594Z,3.88
2022-10-13T13:18:27.134Z,3.22
2022-10-13T13:22:09.150Z,3.70
2022-10-13T13:26:06.625Z,3.00
2022-10-13T13:29:48.407Z,3.40
2022-10-13T13:33:30.235Z,3.08
2022-10-13T13:37:47.839Z,3.42
2022-10-13T13:41:31.238Z,3.72
2022-10-13T13:45:14.047Z,3.45
2022-10-13T13:48:55.771Z,2.60
2022-10-13T13:52:38.494Z,3.50
2022-10-13T13:56:20.359Z,4.40
2022-10-13T14:00:02.197Z,3.90
2022-10-13T14:03:44.104Z,3.75
2022-10-13T14:07:25.959Z,3.17
2022-10-13T14:11:07.951Z,3.50
2022-10-13T14:14:49.614Z,3.75
2022-10-13T14:18:31.491Z,3.40
2022-10-13T14:22:13.176Z,3.80
2022-10-13T14:25:54.903Z,3.15
2022-10-13T14:29:36.939Z,2.95
2022-10-13T14:33:19.680Z,4.03
2022-10-13T14:37:01.425Z,4.90
2022-10-13T14:40:43.240Z,4.95
2022-10-13T14:44:24.901Z,4.78
2022-10-13T14:48:06.581Z,4.30
2022-10-13T14:51:48.359Z,4.55
2022-10-13T14:55:31.634Z,4.65
2022-10-13T14:59:13.345Z,4.25
2022-10-13T15:02:55.240Z,4.45
2022-10-13T15:06:39.355Z,5.22
2022-10-13T15:10:21.526Z,4.22
2022-10-13T15:14:03.265Z,4.10
2022-10-13T15:17:44.951Z,4.65
2022-10-13T15:21:26.901Z,4.22
2022-10-13T15:25:10.347Z,3.88
2022-10-13T15:28:52.761Z,4.15
2022-10-13T15:32:34.583Z,4.13
2022-10-13T15:36:16.310Z,3.88
2022-10-13T15:39:58.029Z,3.42
2022-10-13T15:43:39.736Z,3.78
2022-10-13T15:47:21.617Z,4.10
2022-10-13T15:51:09.476Z,4.35
2022-10-13T15:54:51.546Z,4.28
2022-10-13T15:58:35.158Z,5.10
2022-10-13T16:05:58.719Z,3.45
2022-10-13T16:09:40.410Z,4.20
2022-10-13T16:13:22.393Z,4.47
2022-10-13T16:17:04.138Z,3.95
2022-10-13T16:20:45.965Z,3.90
2022-10-13T16:24:28.958Z,3.35
2022-10-13T16:28:10.732Z,3.30
2022-10-13T16:31:52.601Z,3.72
2022-10-13T16:35:36.887Z,3.05
2022-10-13T16:39:18.619Z,3.20
2022-10-13T16:43:00.525Z,3.50
2022-10-13T16:46:43.011Z,3.45
2022-10-13T16:50:25.093Z,4.03
2022-10-13T16:54:06.766Z,3.58
2022-10-13T16:57:48.439Z,4.20
2022-10-13T17:01:30.683Z,4.43
2022-10-13T17:05:12.370Z,3.65
2022-10-13T17:08:54.402Z,3.92
2022-10-13T17:12:36.303Z,4.40
2022-10-13T17:16:18.383Z,4.25
2022-10-13T17:20:00.081Z,4.63
2022-10-13T17:23:47.385Z,7.93
2022-10-13T17:27:30.231Z,7.43
2022-10-13T17:31:16.669Z,9.07
2022-10-13T17:34:58.337Z,7.38
2022-10-13T17:38:40.123Z,5.95
2022-10-13T17:42:22.071Z,5.93
2022-10-13T17:50:17.231Z,5.82
2022-10-13T17:53:59.563Z,4.90
2022-10-13T17:57:41.312Z,4.43
2022-10-13T18:01:25.831Z,4.43
2022-10-13T18:05:07.834Z,4.47
2022-10-13T18:08:52.675Z,5.18
2022-10-13T18:12:34.542Z,6.53
2022-10-13T18:16:25.919Z,10.85
2022-10-13T18:20:08.209Z,10.63
2022-10-13T18:23:49.990Z,9.98
2022-10-13T18:27:31.658Z,8.02
2022-10-13T18:31:15.924Z,9.20
2022-10-13T18:34:57.645Z,7.30
2022-10-13T18:38:39.302Z,8.23
2022-10-13T18:42:21.201Z,8.77
2022-10-13T18:46:02.981Z,7.38
2022-10-13T18:49:44.650Z,6.90
2022-10-13T18:53:26.562Z,6.97
2022-10-13T18:57:08.241Z,7.15
2022-10-13T19:00:50.446Z,8.23
2022-10-13T19:04:32.160Z,8.45
2022-10-13T19:08:13.833Z,8.82
2022-10-13T19:11:56.941Z,10.10
2022-10-13T19:15:39.763Z,10.90
2022-10-13T19:19:21.478Z,12.97
2022-10-13T19:23:03.625Z,11.18
2022-10-13T19:26:45.306Z,11.63
2022-10-13T19:30:27.160Z,13.07
2022-10-13T19:34:09.566Z,12.13
2022-10-13T19:37:51.229Z,10.10
2022-10-13T19:41:33.250Z,8.00
2022-10-13T19:45:14.953Z,8.20
2022-10-13T19:48:56.617Z,9.10
2022-10-13T19:52:38.417Z,8.57
2022-10-13T19:56:25.733Z,8.35
2022-10-13T20:00:08.299Z,8.90
2022-10-13T20:03:50.161Z,9.10
2022-10-13T20:07:31.859Z,8.32
2022-10-13T20:11:22.198Z,8.32
2022-10-13T20:15:05.602Z,9.68
2022-10-13T20:18:51.708Z,8.75
2022-10-13T20:22:34.678Z,8.98
2022-10-13T20:26:16.446Z,8.47
2022-10-13T20:29:58.115Z,8.60
2022-10-13T20:33:39.972Z,8.75
2022-10-13T20:37:21.831Z,10.48
2022-10-13T20:41:08.572Z,10.05
2022-10-13T20:44:50.272Z,10.60
2022-10-13T20:48:51.026Z,10.13
2022-10-13T20:52:35.266Z,10.68
2022-10-13T20:56:21.612Z,10.45
2022-10-13T21:00:04.803Z,9.95
2022-10-13T21:03:46.654Z,11.02
2022-10-13T21:07:28.526Z,9.75
2022-10-13T21:11:11.615Z,10.38
2022-10-13T21:14:53.451Z,9.82
2022-10-13T21:18:35.220Z,9.73
2022-10-13T21:22:16.942Z,12.20
2022-10-13T21:26:01.538Z,11.30
2022-10-13T21:29:43.193Z,11.98
2022-10-13T21:33:25.028Z,10.48
2022-10-13T21:37:06.685Z,10.57
2022-10-13T21:40:53.675Z,10.38
2022-10-13T21:44:35.643Z,9.25
2022-10-13T21:48:17.308Z,11.00
2022-10-13T21:51:59.481Z,10.45
2022-10-13T21:55:42.042Z,8.82
2022-10-13T21:59:23.721Z,8.52
2022-10-13T22:03:24.067Z,9.65
2022-10-13T22:07:05.875Z,8.98
2022-10-13T22:10:47.755Z,9.80
2022-10-13T22:14:29.431Z,9.98
2022-10-13T22:18:11.099Z,9.00
2022-10-13T22:21:54.024Z,10.00
2022-10-13T22:25:35.696Z,9.50
2022-10-13T22:29:19.414Z,8.82
2022-10-13T22:36:45.189Z,9.00
2022-10-13T22:40:27.485Z,8.38
2022-10-13T22:44:09.174Z,8.75
2022-10-13T22:47:51.270Z,8.38
2022-10-13T22:51:34.180Z,8.20
2022-10-13T22:55:15.914Z,9.70
2022-10-13T22:59:02.094Z,9.27
2022-10-13T23:02:43.981Z,9.68
2022-10-13T23:06:31.346Z,9.18
2022-10-13T23:10:13.184Z,9.40
2022-10-13T23:13:54.990Z,8.48
2022-10-13T23:17:36.719Z,10.13
2022-10-13T23:21:19.595Z,8.90
2022-10-13T23:25:01.261Z,9.77
2022-10-13T23:28:43.216Z,10.73
2022-10-13T23:32:25.192Z,10.80
2022-10-13T23:36:07.583Z,9.25
2022-10-13T23:39:49.254Z,9.50
2022-10-13T23:43:32.070Z,9.45
2022-10-13T23:47:13.730Z,10.23
2022-10-13T23:50:55.829Z,9.73
2022-10-13T23:54:37.490Z,9.40
2022-10-13T23:58:19.137Z,9.32
